sensor_id;sensor_type;location;lat;lon;timestamp;temperature;humidity
27306;DHT22;14792;50.886;6.468;2023-04-15T00:00:00;5.70;99.90
27306;DHT22;14792;50.886;6.468;2023-04-15T00:03:02;5.60;99.90
27306;DHT22;14792;50.886;6.468;2023-04-15T00:06:03;5.40;99.90
27306;DHT22;14792;50.886;6.468;2023-04-15T00:09:05;5.50;99.90
27306;DHT22;14792;50.886;6.468;2023-04-15T00:12:07;5.50;99.90
27306;DHT22;14792;50.886;6.468;2023-04-15T00:15:08;5.40;99.90
27306;DHT22;14792;50.886;6.468;2023-04-15T00:18:10;5.40;99.90
27306;DHT22;14792;50.886;6.468;2023-04-15T00:21:11;5.40;99.90
27306;DHT22;14792;50.886;6.468;2023-04-15T00:24:13;5.40;99.90
27306;DHT22;14792;50.886;6.468;2023-04-15T00:27:15;5.30;99.90
27306;DHT22;14792;50.886;6.468;2023-04-15T00:30:16;5.30;99.90
27306;DHT22;14792;50.886;6.468;2023-04-15T00:33:18;5.20;99.90
27306;DHT22;14792;50.886;6.468;2023-04-15T00:36:19;5.10;99.90
27306;DHT22;14792;50.886;6.468;2023-04-15T00:39:21;5.10;99.90
27306;DHT22;14792;50.886;6.468;2023-04-15T00:42:23;5.10;99.90
27306;DHT22;14792;50.886;6.468;2023-04-15T00:45:24;5.00;99.90
27306;DHT22;14792;50.886;6.468;2023-04-15T00:48:26;5.10;99.90
27306;DHT22;14792;50.886;6.468;2023-04-15T00:51:28;5.10;99.90
27306;DHT22;14792;50.886;6.468;2023-04-15T00:54:29;5.00;99.90
27306;DHT22;14792;50.886;6.468;2023-04-15T00:57:32;5.00;99.90
27306;DHT22;14792;50.886;6.468;2023-04-15T01:00:34;5.10;99.90
27306;DHT22;14792;50.886;6.468;2023-04-15T01:03:35;5.10;99.90
27306;DHT22;14792;50.886;6.468;2023-04-15T01:06:37;5.10;99.90
27306;DHT22;14792;50.886;6.468;2023-04-15T01:09:39;5.10;99.90
27306;DHT22;14792;50.886;6.468;2023-04-15T01:12:40;4.90;99.90
27306;DHT22;14792;50.886;6.468;2023-04-15T01:15:42;4.80;99.90
27306;DHT22;14792;50.886;6.468;2023-04-15T01:18:44;4.80;99.90
27306;DHT22;14792;50.886;6.468;2023-04-15T01:21:45;4.90;99.90
27306;DHT22;14792;50.886;6.468;2023-04-15T01:24:50;4.90;99.90
27306;DHT22;14792;50.886;6.468;2023-04-15T01:27:48;4.80;99.90
27306;DHT22;14792;50.886;6.468;2023-04-15T01:34:06;4.90;99.90
27306;DHT22;14792;50.886;6.468;2023-04-15T01:37:07;4.90;99.90
27306;DHT22;14792;50.886;6.468;2023-04-15T01:40:09;4.90;99.90
27306;DHT22;14792;50.886;6.468;2023-04-15T01:43:11;4.90;99.90
27306;DHT22;14792;50.886;6.468;2023-04-15T01:46:12;4.90;99.90
27306;DHT22;14792;50.886;6.468;2023-04-15T01:49:14;4.80;99.90
27306;DHT22;14792;50.886;6.468;2023-04-15T01:52:16;4.70;99.90
27306;DHT22;14792;50.886;6.468;2023-04-15T01:55:17;4.60;99.90
27306;DHT22;14792;50.886;6.468;2023-04-15T01:58:19;4.60;99.90
27306;DHT22;14792;50.886;6.468;2023-04-15T02:01:20;4.60;99.90
27306;DHT22;14792;50.886;6.468;2023-04-15T02:04:22;4.60;99.90
27306;DHT22;14792;50.886;6.468;2023-04-15T02:07:24;4.50;99.90
27306;DHT22;14792;50.886;6.468;2023-04-15T02:10:25;4.50;99.90
27306;DHT22;14792;50.886;6.468;2023-04-15T02:13:27;4.40;99.90
27306;DHT22;14792;50.886;6.468;2023-04-15T02:16:28;4.30;99.90
27306;DHT22;14792;50.886;6.468;2023-04-15T02:19:30;4.30;99.90
27306;DHT22;14792;50.886;6.468;2023-04-15T02:22:32;4.50;99.90
27306;DHT22;14792;50.886;6.468;2023-04-15T02:25:33;4.50;99.90
27306;DHT22;14792;50.886;6.468;2023-04-15T02:28:35;4.60;99.90
27306;DHT22;14792;50.886;6.468;2023-04-15T02:31:36;4.60;99.90
27306;DHT22;14792;50.886;6.468;2023-04-15T02:34:43;4.60;99.90
27306;DHT22;14792;50.886;6.468;2023-04-15T02:37:46;4.60;99.90
27306;DHT22;14792;50.886;6.468;2023-04-15T02:40:47;4.60;99.90
27306;DHT22;14792;50.886;6.468;2023-04-15T02:43:49;4.50;99.90
27306;DHT22;14792;50.886;6.468;2023-04-15T02:46:51;4.50;99.90
27306;DHT22;14792;50.886;6.468;2023-04-15T02:49:52;4.30;99.90
27306;DHT22;14792;50.886;6.468;2023-04-15T02:52:54;4.20;99.90
27306;DHT22;14792;50.886;6.468;2023-04-15T02:55:56;4.10;99.90
27306;DHT22;14792;50.886;6.468;2023-04-15T02:58:57;4.00;99.90
27306;DHT22;14792;50.886;6.468;2023-04-15T03:01:59;3.80;99.90
27306;DHT22;14792;50.886;6.468;2023-04-15T03:05:01;3.70;99.90
27306;DHT22;14792;50.886;6.468;2023-04-15T03:08:02;3.60;99.90
27306;DHT22;14792;50.886;6.468;2023-04-15T03:11:04;3.50;99.90
27306;DHT22;14792;50.886;6.468;2023-04-15T03:14:05;3.60;99.90
27306;DHT22;14792;50.886;6.468;2023-04-15T03:17:07;3.70;99.90
27306;DHT22;14792;50.886;6.468;2023-04-15T03:20:08;3.90;99.90
27306;DHT22;14792;50.886;6.468;2023-04-15T03:23:10;4.10;99.90
27306;DHT22;14792;50.886;6.468;2023-04-15T03:26:22;4.20;99.90
27306;DHT22;14792;50.886;6.468;2023-04-15T03:29:13;4.30;99.90
27306;DHT22;14792;50.886;6.468;2023-04-15T03:32:15;4.30;99.90
27306;DHT22;14792;50.886;6.468;2023-04-15T03:35:16;4.20;99.90
27306;DHT22;14792;50.886;6.468;2023-04-15T03:38:18;4.20;99.90
27306;DHT22;14792;50.886;6.468;2023-04-15T03:41:19;4.20;99.90
27306;DHT22;14792;50.886;6.468;2023-04-15T03:44:21;4.30;99.90
27306;DHT22;14792;50.886;6.468;2023-04-15T03:47:23;4.30;99.90
27306;DHT22;14792;50.886;6.468;2023-04-15T03:50:24;4.20;99.90
27306;DHT22;14792;50.886;6.468;2023-04-15T03:53:26;4.00;99.90
27306;DHT22;14792;50.886;6.468;2023-04-15T03:56:27;3.90;99.90
27306;DHT22;14792;50.886;6.468;2023-04-15T03:59:29;3.70;99.90
27306;DHT22;14792;50.886;6.468;2023-04-15T04:02:31;3.60;99.90
27306;DHT22;14792;50.886;6.468;2023-04-15T04:05:32;3.40;99.90
27306;DHT22;14792;50.886;6.468;2023-04-15T04:08:34;3.30;99.90
27306;DHT22;14792;50.886;6.468;2023-04-15T04:11:35;3.20;99.90
27306;DHT22;14792;50.886;6.468;2023-04-15T04:14:37;3.20;99.90
27306;DHT22;14792;50.886;6.468;2023-04-15T04:17:39;3.20;99.90
27306;DHT22;14792;50.886;6.468;2023-04-15T04:20:40;3.20;99.90
27306;DHT22;14792;50.886;6.468;2023-04-15T04:23:42;3.30;99.90
27306;DHT22;14792;50.886;6.468;2023-04-15T04:26:43;3.40;99.90
27306;DHT22;14792;50.886;6.468;2023-04-15T04:29:45;3.50;99.90
27306;DHT22;14792;50.886;6.468;2023-04-15T04:32:47;3.60;99.90
27306;DHT22;14792;50.886;6.468;2023-04-15T04:35:48;3.60;99.90
27306;DHT22;14792;50.886;6.468;2023-04-15T04:38:50;3.60;99.90
27306;DHT22;14792;50.886;6.468;2023-04-15T04:41:51;3.70;99.90
27306;DHT22;14792;50.886;6.468;2023-04-15T04:44:53;3.70;99.90
27306;DHT22;14792;50.886;6.468;2023-04-15T04:47:55;3.70;99.90
27306;DHT22;14792;50.886;6.468;2023-04-15T04:51:16;3.80;99.90
27306;DHT22;14792;50.886;6.468;2023-04-15T04:54:18;3.80;99.90
27306;DHT22;14792;50.886;6.468;2023-04-15T04:57:19;3.80;99.90
27306;DHT22;14792;50.886;6.468;2023-04-15T05:00:21;3.80;99.90
27306;DHT22;14792;50.886;6.468;2023-04-15T05:03:22;3.80;99.90
27306;DHT22;14792;50.886;6.468;2023-04-15T05:06:24;3.80;99.90
27306;DHT22;14792;50.886;6.468;2023-04-15T05:09:26;3.80;99.90
27306;DHT22;14792;50.886;6.468;2023-04-15T05:12:27;3.90;99.90
27306;DHT22;14792;50.886;6.468;2023-04-15T05:23:28;4.10;99.90
27306;DHT22;14792;50.886;6.468;2023-04-15T05:26:51;4.10;99.90
27306;DHT22;14792;50.886;6.468;2023-04-15T05:29:53;4.20;99.90
27306;DHT22;14792;50.886;6.468;2023-04-15T05:32:54;4.30;99.90
27306;DHT22;14792;50.886;6.468;2023-04-15T05:35:56;4.40;99.90
27306;DHT22;14792;50.886;6.468;2023-04-15T05:38:58;4.50;99.90
27306;DHT22;14792;50.886;6.468;2023-04-15T05:41:59;4.60;99.90
27306;DHT22;14792;50.886;6.468;2023-04-15T05:45:01;4.80;99.90
27306;DHT22;14792;50.886;6.468;2023-04-15T05:48:02;4.80;99.90
27306;DHT22;14792;50.886;6.468;2023-04-15T05:51:04;5.00;99.90
27306;DHT22;14792;50.886;6.468;2023-04-15T05:54:06;5.10;99.90
27306;DHT22;14792;50.886;6.468;2023-04-15T05:57:07;5.10;99.90
27306;DHT22;14792;50.886;6.468;2023-04-15T06:00:09;5.10;99.90
27306;DHT22;14792;50.886;6.468;2023-04-15T06:03:10;5.20;99.90
27306;DHT22;14792;50.886;6.468;2023-04-15T06:06:12;5.30;99.90
27306;DHT22;14792;50.886;6.468;2023-04-15T06:09:14;5.50;99.90
27306;DHT22;14792;50.886;6.468;2023-04-15T06:12:15;5.60;99.90
27306;DHT22;14792;50.886;6.468;2023-04-15T06:15:17;5.80;99.90
27306;DHT22;14792;50.886;6.468;2023-04-15T06:18:18;5.90;99.90
27306;DHT22;14792;50.886;6.468;2023-04-15T06:21:20;6.10;99.90
27306;DHT22;14792;50.886;6.468;2023-04-15T06:24:22;6.20;99.90
27306;DHT22;14792;50.886;6.468;2023-04-15T06:27:23;6.30;99.90
27306;DHT22;14792;50.886;6.468;2023-04-15T06:30:25;6.40;99.90
27306;DHT22;14792;50.886;6.468;2023-04-15T06:33:26;6.50;99.90
27306;DHT22;14792;50.886;6.468;2023-04-15T06:36:28;6.60;99.90
27306;DHT22;14792;50.886;6.468;2023-04-15T06:39:30;6.70;99.90
27306;DHT22;14792;50.886;6.468;2023-04-15T06:42:32;6.70;99.90
27306;DHT22;14792;50.886;6.468;2023-04-15T06:45:34;6.70;99.90
27306;DHT22;14792;50.886;6.468;2023-04-15T06:48:36;6.70;99.90
27306;DHT22;14792;50.886;6.468;2023-04-15T06:51:37;6.70;99.90
27306;DHT22;14792;50.886;6.468;2023-04-15T06:54:39;6.80;99.90
27306;DHT22;14792;50.886;6.468;2023-04-15T06:57:40;6.80;99.90
27306;DHT22;14792;50.886;6.468;2023-04-15T07:00:42;6.90;99.90
27306;DHT22;14792;50.886;6.468;2023-04-15T07:03:44;6.90;99.90
27306;DHT22;14792;50.886;6.468;2023-04-15T07:06:45;6.90;99.90
27306;DHT22;14792;50.886;6.468;2023-04-15T07:09:47;7.00;99.90
27306;DHT22;14792;50.886;6.468;2023-04-15T07:12:48;7.20;99.90
27306;DHT22;14792;50.886;6.468;2023-04-15T07:15:53;7.30;99.90
27306;DHT22;14792;50.886;6.468;2023-04-15T07:18:54;7.50;99.90
27306;DHT22;14792;50.886;6.468;2023-04-15T07:21:56;7.80;99.90
27306;DHT22;14792;50.886;6.468;2023-04-15T07:24:57;8.00;99.90
27306;DHT22;14792;50.886;6.468;2023-04-15T07:27:59;8.20;99.90
27306;DHT22;14792;50.886;6.468;2023-04-15T07:31:01;8.40;99.90
27306;DHT22;14792;50.886;6.468;2023-04-15T07:34:02;8.60;99.90
27306;DHT22;14792;50.886;6.468;2023-04-15T07:37:04;8.70;99.90
27306;DHT22;14792;50.886;6.468;2023-04-15T07:40:05;8.90;99.90
27306;DHT22;14792;50.886;6.468;2023-04-15T07:43:07;9.00;99.90
27306;DHT22;14792;50.886;6.468;2023-04-15T07:46:09;9.10;99.90
27306;DHT22;14792;50.886;6.468;2023-04-15T07:49:10;9.20;99.90
27306;DHT22;14792;50.886;6.468;2023-04-15T07:52:12;9.40;99.90
27306;DHT22;14792;50.886;6.468;2023-04-15T07:55:13;9.40;99.90
27306;DHT22;14792;50.886;6.468;2023-04-15T07:58:15;9.60;99.90
27306;DHT22;14792;50.886;6.468;2023-04-15T08:01:17;9.70;99.90
27306;DHT22;14792;50.886;6.468;2023-04-15T08:04:18;9.80;99.90
27306;DHT22;14792;50.886;6.468;2023-04-15T08:07:20;10.00;99.90
27306;DHT22;14792;50.886;6.468;2023-04-15T08:10:21;10.10;99.90
27306;DHT22;14792;50.886;6.468;2023-04-15T08:13:23;10.30;99.90
27306;DHT22;14792;50.886;6.468;2023-04-15T08:16:25;10.60;99.90
27306;DHT22;14792;50.886;6.468;2023-04-15T08:19:26;10.70;99.90
27306;DHT22;14792;50.886;6.468;2023-04-15T08:22:28;10.80;99.90
27306;DHT22;14792;50.886;6.468;2023-04-15T08:25:29;11.00;99.90
27306;DHT22;14792;50.886;6.468;2023-04-15T08:28:31;11.10;99.90
27306;DHT22;14792;50.886;6.468;2023-04-15T08:31:33;11.20;99.90
27306;DHT22;14792;50.886;6.468;2023-04-15T08:34:34;11.30;99.90
27306;DHT22;14792;50.886;6.468;2023-04-15T08:37:36;11.60;99.90
27306;DHT22;14792;50.886;6.468;2023-04-15T08:40:41;11.80;99.90
27306;DHT22;14792;50.886;6.468;2023-04-15T08:43:45;12.10;99.90
27306;DHT22;14792;50.886;6.468;2023-04-15T08:46:43;12.10;99.90
27306;DHT22;14792;50.886;6.468;2023-04-15T08:49:45;12.20;99.90
27306;DHT22;14792;50.886;6.468;2023-04-15T08:52:46;12.30;99.90
27306;DHT22;14792;50.886;6.468;2023-04-15T08:55:50;12.20;99.90
27306;DHT22;14792;50.886;6.468;2023-04-15T08:58:50;12.10;99.90
27306;DHT22;14792;50.886;6.468;2023-04-15T09:01:51;12.30;99.90
27306;DHT22;14792;50.886;6.468;2023-04-15T09:04:53;12.50;99.90
27306;DHT22;14792;50.886;6.468;2023-04-15T09:07:54;12.60;99.90
27306;DHT22;14792;50.886;6.468;2023-04-15T09:10:56;12.70;99.90
27306;DHT22;14792;50.886;6.468;2023-04-15T09:13:58;12.70;99.90
27306;DHT22;14792;50.886;6.468;2023-04-15T09:17:02;12.70;99.90
27306;DHT22;14792;50.886;6.468;2023-04-15T09:20:07;12.70;99.90
27306;DHT22;14792;50.886;6.468;2023-04-15T09:23:12;12.80;99.90
27306;DHT22;14792;50.886;6.468;2023-04-15T09:26:13;13.10;99.90
27306;DHT22;14792;50.886;6.468;2023-04-15T09:29:14;13.00;99.90
27306;DHT22;14792;50.886;6.468;2023-04-15T09:32:16;13.00;99.90
27306;DHT22;14792;50.886;6.468;2023-04-15T09:35:18;13.00;99.90
27306;DHT22;14792;50.886;6.468;2023-04-15T09:38:19;13.10;99.90
27306;DHT22;14792;50.886;6.468;2023-04-15T09:41:21;13.30;99.90
27306;DHT22;14792;50.886;6.468;2023-04-15T09:44:23;13.20;99.90
27306;DHT22;14792;50.886;6.468;2023-04-15T09:47:30;13.20;99.90
27306;DHT22;14792;50.886;6.468;2023-04-15T09:50:31;13.40;99.90
27306;DHT22;14792;50.886;6.468;2023-04-15T09:53:34;13.40;99.90
27306;DHT22;14792;50.886;6.468;2023-04-15T09:56:35;13.60;99.90
27306;DHT22;14792;50.886;6.468;2023-04-15T09:59:36;13.50;99.90
27306;DHT22;14792;50.886;6.468;2023-04-15T10:02:38;13.20;99.90
27306;DHT22;14792;50.886;6.468;2023-04-15T10:05:39;13.30;99.90
27306;DHT22;14792;50.886;6.468;2023-04-15T10:08:41;13.50;99.90
27306;DHT22;14792;50.886;6.468;2023-04-15T10:11:42;13.30;99.90
27306;DHT22;14792;50.886;6.468;2023-04-15T10:14:47;13.20;99.90
27306;DHT22;14792;50.886;6.468;2023-04-15T10:17:46;13.50;99.90
27306;DHT22;14792;50.886;6.468;2023-04-15T10:20:47;13.50;99.90
27306;DHT22;14792;50.886;6.468;2023-04-15T10:23:49;13.70;99.90
27306;DHT22;14792;50.886;6.468;2023-04-15T10:26:50;13.40;99.90
27306;DHT22;14792;50.886;6.468;2023-04-15T10:29:52;13.40;99.90
27306;DHT22;14792;50.886;6.468;2023-04-15T10:32:54;13.60;99.90
27306;DHT22;14792;50.886;6.468;2023-04-15T10:35:55;13.60;99.90
27306;DHT22;14792;50.886;6.468;2023-04-15T10:38:57;14.10;99.90
27306;DHT22;14792;50.886;6.468;2023-04-15T10:42:14;14.10;99.90
27306;DHT22;14792;50.886;6.468;2023-04-15T10:45:18;14.20;99.90
27306;DHT22;14792;50.886;6.468;2023-04-15T10:48:20;14.60;99.90
27306;DHT22;14792;50.886;6.468;2023-04-15T10:51:28;14.10;99.90
27306;DHT22;14792;50.886;6.468;2023-04-15T10:54:30;14.20;99.90
27306;DHT22;14792;50.886;6.468;2023-04-15T10:57:34;14.50;99.90
27306;DHT22;14792;50.886;6.468;2023-04-15T11:00:36;15.00;99.90
27306;DHT22;14792;50.886;6.468;2023-04-15T11:03:40;15.30;99.90
27306;DHT22;14792;50.886;6.468;2023-04-15T11:06:43;15.30;99.90
27306;DHT22;14792;50.886;6.468;2023-04-15T11:09:45;15.00;99.90
27306;DHT22;14792;50.886;6.468;2023-04-15T11:12:49;14.70;99.90
27306;DHT22;14792;50.886;6.468;2023-04-15T11:15:48;14.50;99.90
27306;DHT22;14792;50.886;6.468;2023-04-15T11:18:53;14.40;99.90
27306;DHT22;14792;50.886;6.468;2023-04-15T11:21:54;13.90;99.90
27306;DHT22;14792;50.886;6.468;2023-04-15T11:24:56;13.60;99.90
27306;DHT22;14792;50.886;6.468;2023-04-15T11:27:58;13.70;99.90
27306;DHT22;14792;50.886;6.468;2023-04-15T11:31:11;13.70;99.90
27306;DHT22;14792;50.886;6.468;2023-04-15T11:34:12;13.50;99.90
27306;DHT22;14792;50.886;6.468;2023-04-15T11:37:14;13.50;99.90
27306;DHT22;14792;50.886;6.468;2023-04-15T11:40:16;13.80;99.90
27306;DHT22;14792;50.886;6.468;2023-04-15T11:43:20;13.90;99.90
27306;DHT22;14792;50.886;6.468;2023-04-15T11:46:27;14.30;99.90
27306;DHT22;14792;50.886;6.468;2023-04-15T11:49:29;14.50;99.90
27306;DHT22;14792;50.886;6.468;2023-04-15T11:52:28;14.20;99.90
27306;DHT22;14792;50.886;6.468;2023-04-15T11:55:30;14.20;99.90
27306;DHT22;14792;50.886;6.468;2023-04-15T11:58:32;14.60;99.90
27306;DHT22;14792;50.886;6.468;2023-04-15T12:01:33;14.20;99.90
27306;DHT22;14792;50.886;6.468;2023-04-15T12:04:34;14.20;99.90
27306;DHT22;14792;50.886;6.468;2023-04-15T12:07:58;14.00;99.90
27306;DHT22;14792;50.886;6.468;2023-04-15T12:10:58;14.20;99.90
27306;DHT22;14792;50.886;6.468;2023-04-15T12:14:04;13.90;99.90
27306;DHT22;14792;50.886;6.468;2023-04-15T12:17:05;13.90;99.90
27306;DHT22;14792;50.886;6.468;2023-04-15T12:20:06;14.20;99.90
27306;DHT22;14792;50.886;6.468;2023-04-15T12:23:07;14.30;99.90
27306;DHT22;14792;50.886;6.468;2023-04-15T12:26:09;14.10;99.90
27306;DHT22;14792;50.886;6.468;2023-04-15T12:29:11;13.80;99.90
27306;DHT22;14792;50.886;6.468;2023-04-15T12:32:13;13.90;99.90
27306;DHT22;14792;50.886;6.468;2023-04-15T12:35:14;13.70;99.90
27306;DHT22;14792;50.886;6.468;2023-04-15T12:38:15;13.90;99.90
27306;DHT22;14792;50.886;6.468;2023-04-15T12:41:17;13.80;99.90
27306;DHT22;14792;50.886;6.468;2023-04-15T12:44:19;13.90;99.90
27306;DHT22;14792;50.886;6.468;2023-04-15T12:47:20;13.70;99.90
27306;DHT22;14792;50.886;6.468;2023-04-15T12:50:22;13.50;99.90
27306;DHT22;14792;50.886;6.468;2023-04-15T12:53:23;13.30;99.90
27306;DHT22;14792;50.886;6.468;2023-04-15T12:56:25;13.30;99.90
27306;DHT22;14792;50.886;6.468;2023-04-15T12:59:27;13.30;99.90
27306;DHT22;14792;50.886;6.468;2023-04-15T13:02:28;13.40;99.90
27306;DHT22;14792;50.886;6.468;2023-04-15T13:05:30;13.70;99.90
27306;DHT22;14792;50.886;6.468;2023-04-15T13:08:31;13.70;99.90
27306;DHT22;14792;50.886;6.468;2023-04-15T13:11:33;13.60;99.90
27306;DHT22;14792;50.886;6.468;2023-04-15T13:14:35;13.40;99.90
27306;DHT22;14792;50.886;6.468;2023-04-15T13:17:36;13.30;99.90
27306;DHT22;14792;50.886;6.468;2023-04-15T13:20:38;13.10;99.90
27306;DHT22;14792;50.886;6.468;2023-04-15T13:23:42;12.80;99.90
27306;DHT22;14792;50.886;6.468;2023-04-15T13:26:44;12.90;99.90
27306;DHT22;14792;50.886;6.468;2023-04-15T13:29:46;13.00;99.90
27306;DHT22;14792;50.886;6.468;2023-04-15T13:32:48;13.00;99.90
27306;DHT22;14792;50.886;6.468;2023-04-15T13:35:49;13.00;99.90
27306;DHT22;14792;50.886;6.468;2023-04-15T13:38:50;13.00;99.90
27306;DHT22;14792;50.886;6.468;2023-04-15T13:41:52;12.90;99.90
27306;DHT22;14792;50.886;6.468;2023-04-15T13:44:54;12.70;99.90
27306;DHT22;14792;50.886;6.468;2023-04-15T13:47:55;12.80;99.90
27306;DHT22;14792;50.886;6.468;2023-04-15T13:50:57;12.90;99.90
27306;DHT22;14792;50.886;6.468;2023-04-15T13:53:58;13.00;99.90
27306;DHT22;14792;50.886;6.468;2023-04-15T13:57:00;13.20;99.90
27306;DHT22;14792;50.886;6.468;2023-04-15T14:00:02;13.10;99.90
27306;DHT22;14792;50.886;6.468;2023-04-15T14:03:03;13.40;99.90
27306;DHT22;14792;50.886;6.468;2023-04-15T14:06:05;13.50;99.90
27306;DHT22;14792;50.886;6.468;2023-04-15T14:09:06;13.30;99.90
27306;DHT22;14792;50.886;6.468;2023-04-15T14:12:08;13.00;99.90
27306;DHT22;14792;50.886;6.468;2023-04-15T14:15:09;12.80;99.90
27306;DHT22;14792;50.886;6.468;2023-04-15T14:18:11;12.80;99.90
27306;DHT22;14792;50.886;6.468;2023-04-15T14:21:13;12.70;99.90
27306;DHT22;14792;50.886;6.468;2023-04-15T14:24:14;12.60;99.90
27306;DHT22;14792;50.886;6.468;2023-04-15T14:27:16;12.50;99.90
27306;DHT22;14792;50.886;6.468;2023-04-15T14:30:18;12.30;99.90
27306;DHT22;14792;50.886;6.468;2023-04-15T14:33:19;12.50;99.90
27306;DHT22;14792;50.886;6.468;2023-04-15T14:36:21;12.60;99.90
27306;DHT22;14792;50.886;6.468;2023-04-15T14:39:22;12.70;99.90
27306;DHT22;14792;50.886;6.468;2023-04-15T14:42:24;12.70;99.90
27306;DHT22;14792;50.886;6.468;2023-04-15T14:45:25;12.70;99.90
27306;DHT22;14792;50.886;6.468;2023-04-15T14:48:27;12.70;99.90
27306;DHT22;14792;50.886;6.468;2023-04-15T14:51:29;12.80;99.90
27306;DHT22;14792;50.886;6.468;2023-04-15T14:54:30;12.80;99.90
27306;DHT22;14792;50.886;6.468;2023-04-15T14:57:32;12.80;99.90
27306;DHT22;14792;50.886;6.468;2023-04-15T15:00:34;12.80;99.90
27306;DHT22;14792;50.886;6.468;2023-04-15T15:03:35;12.80;99.90
27306;DHT22;14792;50.886;6.468;2023-04-15T15:06:37;12.70;99.90
27306;DHT22;14792;50.886;6.468;2023-04-15T15:09:38;12.70;99.90
27306;DHT22;14792;50.886;6.468;2023-04-15T15:12:40;12.90;99.90
27306;DHT22;14792;50.886;6.468;2023-04-15T15:15:42;12.80;99.90
27306;DHT22;14792;50.886;6.468;2023-04-15T15:18:43;12.60;99.90
27306;DHT22;14792;50.886;6.468;2023-04-15T15:21:45;12.60;99.90
27306;DHT22;14792;50.886;6.468;2023-04-15T15:24:47;12.60;99.90
27306;DHT22;14792;50.886;6.468;2023-04-15T15:27:48;12.60;99.90
27306;DHT22;14792;50.886;6.468;2023-04-15T15:30:50;12.60;99.90
27306;DHT22;14792;50.886;6.468;2023-04-15T15:33:51;12.50;99.90
27306;DHT22;14792;50.886;6.468;2023-04-15T15:36:53;12.50;99.90
27306;DHT22;14792;50.886;6.468;2023-04-15T15:39:54;12.40;99.90
27306;DHT22;14792;50.886;6.468;2023-04-15T15:42:56;12.30;99.90
27306;DHT22;14792;50.886;6.468;2023-04-15T15:45:58;12.30;99.90
27306;DHT22;14792;50.886;6.468;2023-04-15T15:49:01;12.30;99.90
27306;DHT22;14792;50.886;6.468;2023-04-15T15:52:01;12.30;99.90
27306;DHT22;14792;50.886;6.468;2023-04-15T15:55:02;12.40;99.90
27306;DHT22;14792;50.886;6.468;2023-04-15T15:58:04;12.50;99.90
27306;DHT22;14792;50.886;6.468;2023-04-15T16:01:06;12.50;99.90
27306;DHT22;14792;50.886;6.468;2023-04-15T16:04:07;12.30;99.90
27306;DHT22;14792;50.886;6.468;2023-04-15T16:07:09;12.20;99.90
27306;DHT22;14792;50.886;6.468;2023-04-15T16:10:10;12.20;99.90
27306;DHT22;14792;50.886;6.468;2023-04-15T16:13:12;12.30;99.90
27306;DHT22;14792;50.886;6.468;2023-04-15T16:16:14;12.30;99.90
27306;DHT22;14792;50.886;6.468;2023-04-15T16:19:15;12.20;99.90
27306;DHT22;14792;50.886;6.468;2023-04-15T16:22:17;12.30;99.90
27306;DHT22;14792;50.886;6.468;2023-04-15T16:25:18;12.20;99.90
27306;DHT22;14792;50.886;6.468;2023-04-15T16:28:22;12.20;99.90
27306;DHT22;14792;50.886;6.468;2023-04-15T16:31:23;12.20;99.90
27306;DHT22;14792;50.886;6.468;2023-04-15T16:34:25;12.10;99.90
27306;DHT22;14792;50.886;6.468;2023-04-15T16:37:26;12.00;99.90
27306;DHT22;14792;50.886;6.468;2023-04-15T16:40:28;12.10;99.90
27306;DHT22;14792;50.886;6.468;2023-04-15T16:43:29;12.10;99.90
27306;DHT22;14792;50.886;6.468;2023-04-15T16:46:31;12.00;99.90
27306;DHT22;14792;50.886;6.468;2023-04-15T16:49:33;12.00;99.90
27306;DHT22;14792;50.886;6.468;2023-04-15T16:52:34;11.90;99.90
27306;DHT22;14792;50.886;6.468;2023-04-15T16:55:36;12.00;99.90
27306;DHT22;14792;50.886;6.468;2023-04-15T16:58:37;11.90;99.90
27306;DHT22;14792;50.886;6.468;2023-04-15T17:01:39;11.90;99.90
27306;DHT22;14792;50.886;6.468;2023-04-15T17:04:40;11.80;99.90
27306;DHT22;14792;50.886;6.468;2023-04-15T17:07:42;11.70;99.90
27306;DHT22;14792;50.886;6.468;2023-04-15T17:10:44;11.70;99.90
27306;DHT22;14792;50.886;6.468;2023-04-15T17:13:45;11.60;99.90
27306;DHT22;14792;50.886;6.468;2023-04-15T17:16:47;11.50;99.90
27306;DHT22;14792;50.886;6.468;2023-04-15T17:19:48;11.50;99.90
27306;DHT22;14792;50.886;6.468;2023-04-15T17:22:50;11.50;99.90
27306;DHT22;14792;50.886;6.468;2023-04-15T17:25:52;11.30;99.90
27306;DHT22;14792;50.886;6.468;2023-04-15T17:28:53;11.20;99.90
27306;DHT22;14792;50.886;6.468;2023-04-15T17:31:56;11.10;99.90
27306;DHT22;14792;50.886;6.468;2023-04-15T17:34:57;11.00;99.90
27306;DHT22;14792;50.886;6.468;2023-04-15T17:37:59;11.00;99.90
27306;DHT22;14792;50.886;6.468;2023-04-15T17:41:00;10.90;99.90
27306;DHT22;14792;50.886;6.468;2023-04-15T17:44:02;10.80;99.90
27306;DHT22;14792;50.886;6.468;2023-04-15T17:47:04;10.80;99.90
27306;DHT22;14792;50.886;6.468;2023-04-15T17:50:06;10.80;99.90
27306;DHT22;14792;50.886;6.468;2023-04-15T17:53:07;10.60;99.90
27306;DHT22;14792;50.886;6.468;2023-04-15T17:56:08;10.60;99.90
27306;DHT22;14792;50.886;6.468;2023-04-15T17:59:10;10.50;99.90
27306;DHT22;14792;50.886;6.468;2023-04-15T18:02:12;10.50;99.90
27306;DHT22;14792;50.886;6.468;2023-04-15T18:05:13;10.40;99.90
27306;DHT22;14792;50.886;6.468;2023-04-15T18:08:15;10.30;99.90
27306;DHT22;14792;50.886;6.468;2023-04-15T18:11:16;10.30;99.90
27306;DHT22;14792;50.886;6.468;2023-04-15T18:14:18;10.20;99.90
27306;DHT22;14792;50.886;6.468;2023-04-15T18:17:20;10.20;99.90
27306;DHT22;14792;50.886;6.468;2023-04-15T18:20:21;10.20;99.90
27306;DHT22;14792;50.886;6.468;2023-04-15T18:23:23;10.10;99.90
27306;DHT22;14792;50.886;6.468;2023-04-15T18:26:24;10.10;99.90
27306;DHT22;14792;50.886;6.468;2023-04-15T18:29:26;10.10;99.90
27306;DHT22;14792;50.886;6.468;2023-04-15T18:32:28;10.10;99.90
27306;DHT22;14792;50.886;6.468;2023-04-15T18:35:29;10.10;99.90
27306;DHT22;14792;50.886;6.468;2023-04-15T18:38:31;10.10;99.90
27306;DHT22;14792;50.886;6.468;2023-04-15T18:41:32;10.00;99.90
27306;DHT22;14792;50.886;6.468;2023-04-15T18:44:34;10.00;99.90
27306;DHT22;14792;50.886;6.468;2023-04-15T18:47:36;10.00;99.90
27306;DHT22;14792;50.886;6.468;2023-04-15T18:50:37;10.00;99.90
27306;DHT22;14792;50.886;6.468;2023-04-15T18:53:39;10.00;99.90
27306;DHT22;14792;50.886;6.468;2023-04-15T18:56:40;10.00;99.90
27306;DHT22;14792;50.886;6.468;2023-04-15T18:59:42;9.90;99.90
27306;DHT22;14792;50.886;6.468;2023-04-15T19:02:44;9.80;99.90
27306;DHT22;14792;50.886;6.468;2023-04-15T19:05:45;9.80;99.90
27306;DHT22;14792;50.886;6.468;2023-04-15T19:08:47;9.70;99.90
27306;DHT22;14792;50.886;6.468;2023-04-15T19:11:48;9.60;99.90
27306;DHT22;14792;50.886;6.468;2023-04-15T19:14:50;9.60;99.90
27306;DHT22;14792;50.886;6.468;2023-04-15T19:17:51;9.60;99.90
27306;DHT22;14792;50.886;6.468;2023-04-15T19:20:53;9.50;99.90
27306;DHT22;14792;50.886;6.468;2023-04-15T19:23:55;9.50;99.90
27306;DHT22;14792;50.886;6.468;2023-04-15T19:26:56;9.50;99.90